Time;durP1;ratioP1;P1;durP2;ratioP2;P2;SDS_P1;SDS_P2;PMS_P1;PMS_P2;Temp;Humidity;BMP_temperature;BMP_pressure;BME280_temperature;BME280_humidity;BME280_pressure;Samples;Min_cycle;Max_cycle;Signal;HPM_P1;HPM_P2
2024/02/05 00:00:10;;;;;;;16.02;6.80;;;;;;;12.18;86.60;99792.63;5011625;28;20058;-75
2024/02/05 00:02:38;;;;;;;12.48;6.63;;;;;;;12.19;86.70;99789.03;5011190;28;20104;-75
2024/02/05 00:05:07;;;;;;;13.07;5.78;;;;;;;12.17;86.71;99789.13;5011181;28;20049;-75
2024/02/05 00:07:36;;;;;;;16.38;6.22;;;;;;;12.17;86.80;99802.31;5010318;28;20061;-73
2024/02/05 00:10:07;;;;;;;12.77;6.13;;;;;;;12.14;86.51;99807.78;5010695;28;20479;-75
2024/02/05 00:12:37;;;;;;;15.93;6.90;;;;;;;12.15;86.63;99819.19;5011211;28;20387;-74
2024/02/05 00:15:05;;;;;;;17.60;6.72;;;;;;;12.16;86.90;99811.19;5010950;28;20050;-76
2024/02/05 00:17:32;;;;;;;16.23;6.95;;;;;;;12.15;86.79;99803.38;5011166;28;20054;-75
2024/02/05 00:20:00;;;;;;;15.52;6.07;;;;;;;12.16;86.84;99802.41;5009946;28;20483;-74
2024/02/05 00:22:33;;;;;;;18.23;6.65;;;;;;;12.15;86.93;99803.38;5011218;28;20092;-75
2024/02/05 00:25:02;;;;;;;16.70;6.03;;;;;;;12.15;86.85;99795.44;5010299;28;20116;-76
2024/02/05 00:27:29;;;;;;;22.58;6.95;;;;;;;12.14;86.80;99807.78;5011027;28;20395;-72
2024/02/05 00:29:55;;;;;;;16.58;6.15;;;;;;;12.16;86.79;99805.06;5009582;28;20053;-75
2024/02/05 00:32:22;;;;;;;22.63;6.32;;;;;;;12.15;87.00;99798.09;5011005;28;20104;-75
2024/02/05 00:34:49;;;;;;;17.52;6.85;;;;;;;12.15;86.87;99811.28;5012208;28;20541;-74
2024/02/05 00:37:17;;;;;;;18.48;6.22;;;;;;;12.15;86.86;99808.66;5015041;28;20087;-75
2024/02/05 00:39:43;;;;;;;15.93;6.88;;;;;;;12.14;86.67;99791.94;5013653;28;20054;-73
2024/02/05 00:42:12;;;;;;;25.23;7.68;;;;;;;12.11;87.00;99803.56;5014743;28;20060;-75
2024/02/05 00:44:42;;;;;;;21.02;7.20;;;;;;;12.11;86.83;99806.19;5014543;28;20479;-75
2024/02/05 00:47:12;;;;;;;16.60;6.97;;;;;;;12.10;86.70;99812.41;5014688;28;20137;-73
2024/02/05 00:49:39;;;;;;;25.77;7.30;;;;;;;12.12;86.85;99773.56;5014926;28;20057;-74
2024/02/05 00:52:05;;;;;;;18.88;6.65;;;;;;;12.11;86.98;99800.91;5013495;28;20045;-73
2024/02/05 00:54:32;;;;;;;18.08;6.90;;;;;;;12.11;86.87;99790.34;5014432;28;20518;-75
2024/02/05 00:56:59;;;;;;;15.48;5.93;;;;;;;12.11;87.05;99786.84;5014526;28;20054;-75
2024/02/05 00:59:26;;;;;;;20.25;6.65;;;;;;;12.11;86.91;99794.78;5014538;28;20050;-75
2024/02/05 01:01:55;;;;;;;17.52;6.85;;;;;;;12.11;86.92;99798.28;5014701;28;20045;-74
2024/02/05 01:04:25;;;;;;;15.95;6.70;;;;;;;12.10;86.85;99796.59;5014005;28;20076;-74
2024/02/05 01:06:55;;;;;;;20.42;7.53;;;;;;;12.10;86.85;99793.94;5013310;28;20054;-75
2024/02/05 01:09:21;;;;;;;20.73;6.80;;;;;;;12.11;87.00;99795.63;5355563;22;20024;-79
2024/02/05 01:11:48;;;;;;;21.38;6.38;;;;;;;12.13;86.93;99795.53;5051445;28;20545;-79
2024/02/05 01:14:14;;;;;;;21.27;6.38;;;;;;;12.11;86.88;99806.19;5054005;28;20136;-79
2024/02/05 01:16:41;;;;;;;14.82;5.95;;;;;;;12.11;86.89;99808.81;5052446;28;20137;-79
2024/02/05 01:19:07;;;;;;;17.38;6.82;;;;;;;12.12;86.79;99797.31;5052641;28;20143;-80
2024/02/05 01:21:35;;;;;;;26.52;7.10;;;;;;;12.12;86.57;99802.59;5053800;28;20070;-79
2024/02/05 01:24:02;;;;;;;21.73;6.72;;;;;;;12.13;86.76;99806.09;5053539;28;20049;-79
2024/02/05 01:26:28;;;;;;;25.10;7.07;;;;;;;12.14;86.34;99806.97;5053512;28;20141;-78
2024/02/05 01:28:55;;;;;;;20.27;5.70;;;;;;;12.14;86.41;99814.88;5053670;28;20053;-80
2024/02/05 01:31:22;;;;;;;24.52;6.28;;;;;;;12.14;86.49;99812.22;5053378;28;20136;-80
2024/02/05 01:33:49;;;;;;;26.63;7.18;;;;;;;12.14;86.55;99806.97;5053171;28;20556;-80
2024/02/05 01:36:15;;;;;;;27.25;6.60;;;;;;;12.14;86.30;99820.16;5051676;28;20087;-79
2024/02/05 01:38:42;;;;;;;19.50;6.38;;;;;;;12.16;86.39;99812.97;5053061;28;20049;-79
2024/02/05 01:41:08;;;;;;;21.23;5.72;;;;;;;12.16;86.50;99805.06;5053334;28;20055;-79
2024/02/05 01:43:35;;;;;;;19.80;6.28;;;;;;;12.17;86.24;99812.88;5053343;28;20088;-79
2024/02/05 01:46:02;;;;;;;24.98;6.10;;;;;;;12.17;86.43;99807.59;5052337;28;20049;-78
2024/02/05 01:48:33;;;;;;;23.60;5.43;;;;;;;12.18;85.57;99803.19;5053433;28;20524;-79
2024/02/05 01:51:00;;;;;;;26.45;7.05;;;;;;;12.20;86.04;99799.50;5053041;28;20049;-79
2024/02/05 01:53:27;;;;;;;24.65;6.47;;;;;;;12.23;85.95;99803.72;5053189;28;20092;-77
2024/02/05 01:55:54;;;;;;;24.58;5.63;;;;;;;12.23;85.83;99819.56;5052834;28;20132;-79
2024/02/05 01:58:21;;;;;;;25.70;6.20;;;;;;;12.25;85.68;99807.09;5051587;28;20572;-79
2024/02/05 02:00:48;;;;;;;22.17;5.65;;;;;;;12.25;85.57;99807.09;5052940;28;20071;-79
2024/02/05 02:03:16;;;;;;;28.67;6.35;;;;;;;12.25;85.47;99805.31;5052717;28;20045;-77
2024/02/05 02:05:43;;;;;;;25.45;6.57;;;;;;;12.27;85.22;99801.72;5052448;28;20057;-79
2024/02/05 02:08:12;;;;;;;20.55;5.53;;;;;;;12.27;85.49;99807.00;5052652;28;20516;-79
2024/02/05 02:10:38;;;;;;;25.58;6.70;;;;;;;12.29;85.50;99807.78;5052523;28;20474;-79
2024/02/05 02:13:05;;;;;;;22.40;5.50;;;;;;;12.31;85.59;99804.09;5052790;28;20084;-79
2024/02/05 02:15:31;;;;;;;25.20;6.20;;;;;;;12.32;85.38;99797.88;5052474;28;20086;-78
2024/02/05 02:18:02;;;;;;;26.33;6.22;;;;;;;12.32;84.64;99789.94;5052551;28;20102;-79
2024/02/05 02:20:34;;;;;;;23.40;6.03;;;;;;;12.33;84.53;99783.72;5052614;28;20140;-79
2024/02/05 02:23:14;;;;;;;24.45;6.10;;;;;;;12.32;83.27;99789.94;5051495;28;20501;-80
2024/02/05 02:25:41;;;;;;;23.17;5.50;;;;;;;12.37;84.50;99789.63;5052279;28;20118;-80
2024/02/05 02:28:07;;;;;;;26.38;5.90;;;;;;;12.37;84.44;99787.84;5052410;28;20497;-80
2024/02/05 02:30:36;;;;;;;22.85;5.68;;;;;;;12.37;84.39;99792.28;5052283;28;20391;-77
2024/02/05 02:33:36;;;;;;;24.30;5.80;;;;;;;12.33;83.05;99791.63;5052477;28;20089;-82
2024/02/05 02:36:07;;;;;;;23.50;5.75;;;;;;;12.37;83.71;99792.28;5052199;28;20052;-79
2024/02/05 02:38:48;;;;;;;30.85;7.22;;;;;;;12.37;84.11;99794.91;5052251;28;20131;-79
2024/02/05 02:41:18;;;;;;;21.85;5.93;;;;;;;12.37;83.93;99792.28;5050921;28;20136;-78
2024/02/05 02:43:53;;;;;;;22.98;6.50;;;;;;;12.34;82.30;99803.88;5052207;28;20559;-77
2024/02/05 02:46:20;;;;;;;23.88;7.15;;;;;;;12.36;83.92;99799.38;5050523;28;20536;-79
2024/02/05 02:48:47;;;;;;;27.85;6.22;;;;;;;12.36;84.06;99799.38;5050803;28;20053;-79
2024/02/05 02:51:13;;;;;;;25.63;6.07;;;;;;;12.36;84.00;99802.00;5052075;28;20099;-80
2024/02/05 02:53:40;;;;;;;22.33;5.82;;;;;;;12.35;83.82;99791.53;5051812;28;20151;-79
2024/02/05 02:56:07;;;;;;;21.20;5.85;;;;;;;12.35;84.02;99792.41;5051817;28;20048;-77
2024/02/05 02:58:34;;;;;;;25.67;5.75;;;;;;;12.35;83.82;99788.91;5050968;28;20473;-79
2024/02/05 03:01:01;;;;;;;24.45;6.15;;;;;;;12.34;83.47;99793.31;5051770;28;20053;-78
2024/02/05 03:03:27;;;;;;;22.98;5.60;;;;;;;12.35;83.96;99795.03;5051731;28;20045;-78
2024/02/05 03:05:54;;;;;;;26.95;6.57;;;;;;;12.34;83.69;99787.22;5051419;28;20048;-79
2024/02/05 03:08:20;;;;;;;29.85;7.45;;;;;;;12.34;83.68;99795.13;5051579;28;20053;-79
2024/02/05 03:10:47;;;;;;;32.85;6.78;;;;;;;12.31;83.07;99793.53;5051623;28;20057;-79
2024/02/05 03:13:14;;;;;;;27.92;6.78;;;;;;;12.32;83.50;99781.16;5051698;28;20084;-79
2024/02/05 03:15:44;;;;;;;27.20;6.40;;;;;;;12.32;83.44;99789.94;5051242;28;20529;-79
2024/02/05 03:18:11;;;;;;;30.27;6.55;;;;;;;12.32;83.52;99789.09;5051505;28;20062;-79
2024/02/05 03:20:39;;;;;;;26.50;6.10;;;;;;;12.30;83.19;99791.81;5051282;28;20128;-78
2024/02/05 03:23:08;;;;;;;29.55;7.30;;;;;;;12.30;82.93;99797.09;5051234;28;20505;-80
2024/02/05 03:25:38;;;;;;;29.23;5.90;;;;;;;12.31;83.07;99793.53;5051095;28;20044;-79
2024/02/05 03:28:07;;;;;;;22.02;5.93;;;;;;;12.29;82.95;99805.97;5051368;28;20425;-79
2024/02/05 03:30:35;;;;;;;24.20;5.43;;;;;;;12.30;83.09;99797.09;5051207;28;20524;-79
2024/02/05 03:33:03;;;;;;;24.50;6.20;;;;;;;12.29;83.01;99808.59;5051057;28;20106;-80
2024/02/05 03:35:29;;;;;;;20.85;5.10;;;;;;;12.29;83.06;99803.34;5051105;28;20063;-79
2024/02/05 03:37:56;;;;;;;33.15;7.18;;;;;;;12.29;83.18;99805.97;5051017;28;20544;-79
2024/02/05 03:40:23;;;;;;;30.40;6.05;;;;;;;12.28;82.88;99814.84;5050973;28;20041;-77
2024/02/05 03:42:50;;;;;;;26.42;6.65;;;;;;;12.29;82.99;99815.69;5051091;28;20052;-79
2024/02/05 03:45:18;;;;;;;21.80;6.28;;;;;;;12.29;82.69;99800.69;5050726;28;20061;-81
2024/02/05 03:47:45;;;;;;;27.63;6.20;;;;;;;12.28;82.86;99809.56;5049683;28;20053;-78
2024/02/05 03:50:12;;;;;;;23.13;5.28;;;;;;;12.28;82.87;99809.56;5050883;28;20485;-80
2024/02/05 03:52:45;;;;;;;25.58;6.10;;;;;;;12.25;80.96;99810.59;5049678;28;20057;-78
2024/02/05 03:55:13;;;;;;;28.48;6.03;;;;;;;12.28;82.83;99809.56;5049411;28;20049;-80
2024/02/05 03:57:56;;;;;;;26.80;6.72;;;;;;;12.28;82.41;99824.53;5049468;28;20049;-79
2024/02/05 04:00:22;;;;;;;27.27;6.40;;;;;;;12.28;82.58;99806.06;5050803;28;20052;-79
2024/02/05 04:02:49;;;;;;;24.60;5.55;;;;;;;12.27;82.21;99817.56;5050719;28;20132;-79
2024/02/05 04:05:15;;;;;;;25.23;6.32;;;;;;;12.27;82.42;99818.44;5050342;28;20053;-79
2024/02/05 04:07:42;;;;;;;31.10;6.25;;;;;;;12.24;82.27;99808.91;5050624;28;20048;-79
2024/02/05 04:10:09;;;;;;;23.55;5.70;;;;;;;12.24;82.00;99808.91;5050127;28;20140;-79
2024/02/05 04:12:35;;;;;;;30.38;6.30;;;;;;;12.24;81.89;99798.34;5050441;28;20533;-79
2024/02/05 04:15:03;;;;;;;27.23;6.43;;;;;;;12.23;82.18;99804.56;5050133;28;20068;-79
2024/02/05 04:17:29;;;;;;;29.45;6.00;;;;;;;12.24;82.26;99815.97;5050698;28;20049;-79
2024/02/05 04:19:57;;;;;;;26.00;6.10;;;;;;;12.23;81.97;99806.38;5049438;28;20114;-79
2024/02/05 04:22:23;;;;;;;26.65;6.20;;;;;;;12.23;82.24;99809.84;5050343;28;20053;-77
2024/02/05 04:24:50;;;;;;;26.30;6.18;;;;;;;12.24;81.97;99815.97;5050057;28;20049;-76
2024/02/05 04:27:16;;;;;;;25.65;6.10;;;;;;;12.22;81.65;99799.38;5050245;28;20107;-78
2024/02/05 04:29:43;;;;;;;25.70;6.10;;;;;;;12.23;82.01;99798.44;5050639;28;20154;-79
2024/02/05 04:32:10;;;;;;;33.65;7.60;;;;;;;12.22;81.69;99807.28;5050511;28;20063;-80
2024/02/05 04:34:36;;;;;;;27.75;6.18;;;;;;;12.22;81.62;99812.56;5050377;28;20053;-80
2024/02/05 04:37:03;;;;;;;24.00;6.00;;;;;;;12.22;81.70;99809.94;5050449;28;20055;-79
2024/02/05 04:39:30;;;;;;;23.45;5.90;;;;;;;12.23;82.08;99817.75;5050534;28;20053;-79
2024/02/05 04:41:56;;;;;;;30.52;6.70;;;;;;;12.23;81.65;99806.38;5050270;28;20473;-79
2024/02/05 04:44:23;;;;;;;40.65;7.00;;;;;;;12.22;81.62;99815.22;5050024;28;20471;-79
2024/02/05 04:46:49;;;;;;;21.77;5.88;;;;;;;12.21;81.15;99810.88;5050426;28;20063;-78
2024/02/05 04:49:18;;;;;;;30.90;6.95;;;;;;;12.20;81.42;99817.13;5050468;28;20055;-78
2024/02/05 04:51:48;;;;;;;31.08;6.80;;;;;;;12.18;80.65;99816.38;5050305;28;20136;-77
2024/02/05 04:54:14;;;;;;;24.20;6.53;;;;;;;12.18;81.43;99808.47;5050254;28;20143;-78
2024/02/05 04:56:41;;;;;;;31.42;6.90;;;;;;;12.17;81.02;99801.47;5050203;28;20139;-79
2024/02/05 04:59:07;;;;;;;32.78;7.65;;;;;;;12.15;81.10;99813.91;5050479;28;20063;-77
2024/02/05 05:01:34;;;;;;;26.50;7.07;;;;;;;12.13;80.94;99824.56;5050348;28;20053;-79
2024/02/05 05:04:01;;;;;;;36.53;7.35;;;;;;;12.10;80.79;99812.41;5050210;28;20045;-79
2024/02/05 05:06:27;;;;;;;28.45;6.93;;;;;;;12.08;81.00;99816.09;5049840;28;20120;-79
2024/02/05 05:08:53;;;;;;;31.13;7.43;;;;;;;12.08;81.32;99819.56;5050121;28;20055;-78
2024/02/05 05:11:24;;;;;;;28.02;6.72;;;;;;;12.04;80.15;99823.31;5050244;28;20094;-79
2024/02/05 05:13:51;;;;;;;35.00;7.53;;;;;;;12.06;81.28;99799.50;5050088;28;20145;-79
2024/02/05 05:16:18;;;;;;;32.05;7.43;;;;;;;12.04;80.89;99810.13;5049847;28;20135;-79
2024/02/05 05:18:45;;;;;;;26.45;7.00;;;;;;;12.04;81.35;99817.19;5050013;28;20052;-79
2024/02/05 05:21:12;;;;;;;38.13;7.25;;;;;;;12.03;81.20;99815.50;5050420;28;20049;-79
2024/02/05 05:23:40;;;;;;;31.27;7.00;;;;;;;11.99;80.51;99813.06;5053627;28;20053;-77
2024/02/05 05:26:07;;;;;;;35.05;7.15;;;;;;;12.00;81.32;99819.16;5053475;28;20052;-79
2024/02/05 05:28:33;;;;;;;34.67;8.40;;;;;;;11.95;80.88;99808.06;5053645;28;20056;-79
2024/02/05 05:31:00;;;;;;;30.58;7.55;;;;;;;11.96;81.08;99809.78;5053752;28;20088;-78
2024/02/05 05:33:26;;;;;;;31.08;6.43;;;;;;;11.95;81.01;99827.38;5053681;28;20048;-78
2024/02/05 05:35:53;;;;;;;34.75;7.75;;;;;;;11.93;80.89;99802.03;5053097;28;20128;-79
2024/02/05 05:38:20;;;;;;;32.83;7.85;;;;;;;11.92;80.95;99809.09;5053380;28;20048;-78
2024/02/05 05:40:46;;;;;;;29.30;7.03;;;;;;;11.90;80.63;99815.41;5053569;28;20483;-79
2024/02/05 05:43:13;;;;;;;33.45;7.47;;;;;;;11.89;80.64;99817.19;5053299;28;20048;-78
2024/02/05 05:45:39;;;;;;;37.30;7.85;;;;;;;11.88;80.90;99815.50;5052993;28;20386;-79
2024/02/05 05:48:07;;;;;;;28.40;6.97;;;;;;;11.87;80.93;99803.25;5052072;28;20049;-79
2024/02/05 05:50:34;;;;;;;39.30;7.35;;;;;;;11.85;81.02;99813.91;5053137;28;20132;-79
2024/02/05 05:53:01;;;;;;;32.13;7.63;;;;;;;11.85;80.92;99810.44;5053611;28;20060;-79
2024/02/05 05:55:27;;;;;;;38.85;8.18;;;;;;;11.83;80.86;99822.84;5051825;28;20099;-78
2024/02/05 05:57:54;;;;;;;35.65;7.78;;;;;;;11.80;80.49;99810.72;5053079;28;20680;-79
2024/02/05 06:00:22;;;;;;;26.83;7.85;;;;;;;11.80;80.85;99813.34;5053089;28;20091;-82
2024/02/05 06:02:48;;;;;;;31.98;7.50;;;;;;;11.80;81.17;99815.13;5052967;28;20118;-79
2024/02/05 06:05:15;;;;;;;31.10;6.95;;;;;;;11.79;80.74;99827.47;5052516;28;20110;-78
2024/02/05 06:07:41;;;;;;;32.85;6.90;;;;;;;11.79;80.58;99818.69;5053064;28;20136;-79
2024/02/05 06:10:09;;;;;;;34.50;6.97;;;;;;;11.77;80.61;99820.59;5052667;28;20478;-78
2024/02/05 06:12:35;;;;;;;37.95;8.13;;;;;;;11.76;80.69;99803.91;5052919;28;20118;-79
2024/02/05 06:15:02;;;;;;;38.22;8.35;;;;;;;11.75;80.72;99815.41;5052541;28;20162;-79
2024/02/05 06:17:29;;;;;;;27.27;6.78;;;;;;;11.75;80.44;99801.38;5052775;28;20041;-77
2024/02/05 06:19:55;;;;;;;30.02;6.97;;;;;;;11.73;80.59;99804.09;5052548;28;20094;-79
2024/02/05 06:22:22;;;;;;;28.83;7.63;;;;;;;11.72;80.49;99805.06;5052565;28;20052;-79
2024/02/05 06:24:49;;;;;;;32.10;7.28;;;;;;;11.71;80.57;99816.53;5052364;28;20114;-80
2024/02/05 06:27:15;;;;;;;31.70;7.70;;;;;;;11.71;80.72;99811.28;5052644;28;20136;-79
2024/02/05 06:29:42;;;;;;;25.20;6.63;;;;;;;11.70;80.91;99809.59;5052508;28;20056;-79
2024/02/05 06:32:08;;;;;;;35.55;7.22;;;;;;;11.70;80.78;99814.84;5051990;28;20232;-78
2024/02/05 06:34:35;;;;;;;41.78;8.48;;;;;;;11.70;80.68;99830.69;5052350;28;20052;-80
2024/02/05 06:37:02;;;;;;;35.13;7.47;;;;;;;11.69;80.77;99818.41;5051192;28;20049;-80
2024/02/05 06:39:28;;;;;;;32.67;8.15;;;;;;;11.67;80.43;99823.78;5052296;28;20055;-79
2024/02/05 06:41:55;;;;;;;31.38;7.35;;;;;;;11.67;80.35;99828.22;5052193;28;20490;-80
2024/02/05 06:44:21;;;;;;;32.15;7.78;;;;;;;11.66;80.25;99829.16;5051723;28;20061;-79
2024/02/05 06:46:48;;;;;;;31.83;7.88;;;;;;;11.66;80.33;99823.91;5052016;28;20045;-78
2024/02/05 06:49:14;;;;;;;30.92;6.93;;;;;;;11.66;80.57;99813.34;5052283;28;20095;-79
2024/02/05 06:51:41;;;;;;;29.77;7.38;;;;;;;11.62;79.74;99825.03;5052131;28;20068;-80
2024/02/05 06:54:08;;;;;;;39.28;8.27;;;;;;;11.62;80.12;99832.94;5052064;28;20057;-79
2024/02/05 06:56:35;;;;;;;34.42;7.45;;;;;;;11.62;80.46;99827.66;5051757;28;20099;-80
2024/02/05 06:59:01;;;;;;;39.63;7.65;;;;;;;11.62;80.28;99832.94;5052048;28;20250;-80
2024/02/05 07:01:27;;;;;;;34.47;7.78;;;;;;;11.62;80.15;99840.84;5051844;28;20048;-79
2024/02/05 07:03:54;;;;;;;31.02;8.18;;;;;;;11.60;80.23;99841.75;5051930;28;20052;-77
2024/02/05 07:06:21;;;;;;;32.13;8.75;;;;;;;11.60;80.06;99841.75;5051651;28;20048;-80
2024/02/05 07:11:19;;;;;;;26.63;6.95;;;;;;;11.59;79.70;99821.59;5011007;28;20049;-77
2024/02/05 07:13:46;;;;;;;33.92;7.95;;;;;;;11.58;79.98;99838.38;5012320;28;20046;-76
2024/02/05 07:16:17;;;;;;;26.92;8.20;;;;;;;11.58;79.80;99832.25;5011873;28;20152;-76
2024/02/05 07:18:43;;;;;;;28.90;7.00;;;;;;;11.57;79.92;99834.06;5011914;28;20424;-76
2024/02/05 07:21:10;;;;;;;27.50;7.55;;;;;;;11.56;79.64;99853.41;5011993;28;20411;-75
2024/02/05 07:23:37;;;;;;;22.00;6.55;;;;;;;11.56;79.78;99844.69;5054189;22;20049;-76
2024/02/05 07:26:03;;;;;;;25.70;6.90;;;;;;;11.55;79.39;99853.53;5071709;28;20044;-76
2024/02/05 07:28:30;;;;;;;38.47;8.55;;;;;;;11.54;79.29;99857.94;5071395;28;20052;-77
2024/02/05 07:30:57;;;;;;;33.67;7.50;;;;;;;11.53;79.50;99871.22;5071341;28;20040;-77
2024/02/05 07:33:24;;;;;;;31.42;7.57;;;;;;;11.53;79.26;99874.72;5069837;28;20093;-78
2024/02/05 07:35:50;;;;;;;34.90;8.63;;;;;;;11.53;79.48;99868.59;5070865;28;20051;-77
2024/02/05 07:38:17;;;;;;;38.92;8.95;;;;;;;11.52;79.34;99869.53;5070988;28;20071;-77
2024/02/05 07:40:43;;;;;;;33.28;7.72;;;;;;;11.52;79.52;99878.31;5070894;28;20044;-77
2024/02/05 07:43:10;;;;;;;29.80;7.53;;;;;;;11.52;79.55;99883.56;5070830;28;20041;-77
2024/02/05 07:45:36;;;;;;;29.70;7.00;;;;;;;11.52;79.17;99888.84;5068886;28;20101;-77
2024/02/05 07:48:03;;;;;;;25.70;7.72;;;;;;;11.50;79.20;99882.78;5070940;28;20078;-77
2024/02/05 07:50:29;;;;;;;28.85;7.63;;;;;;;11.51;79.08;99891.56;5071072;28;20067;-77
2024/02/05 07:52:56;;;;;;;27.70;7.57;;;;;;;11.51;78.69;99889.75;5070558;28;20055;-77
2024/02/05 07:55:22;;;;;;;30.30;9.18;;;;;;;11.49;78.90;99882.88;5069968;28;20044;-77
2024/02/05 07:57:49;;;;;;;24.10;7.20;;;;;;;11.49;79.10;99889.00;5070697;28;20048;-76
2024/02/05 08:00:16;;;;;;;31.38;7.28;;;;;;;11.50;79.04;99898.63;5070493;28;20056;-78
2024/02/05 08:02:42;;;;;;;29.92;7.45;;;;;;;11.49;78.33;99896.94;5070469;28;20044;-78
2024/02/05 08:05:09;;;;;;;30.48;8.02;;;;;;;11.50;78.92;99893.34;5068906;28;20110;-76
2024/02/05 08:07:36;;;;;;;33.70;8.30;;;;;;;11.49;78.83;99901.34;5070269;28;20052;-77
2024/02/05 08:10:04;;;;;;;25.48;6.68;;;;;;;11.48;78.85;99895.22;5070919;28;20068;-76
2024/02/05 08:12:30;;;;;;;41.03;8.25;;;;;;;11.49;78.72;99880.25;5070368;28;20056;-77
2024/02/05 08:14:57;;;;;;;31.38;8.20;;;;;;;11.47;78.57;99893.50;5070815;28;20083;-76
2024/02/05 08:17:23;;;;;;;30.00;7.57;;;;;;;11.46;78.69;99876.88;5070975;28;20080;-76
2024/02/05 08:19:50;;;;;;;40.65;8.55;;;;;;;11.46;78.56;99886.56;5070877;28;20048;-77
2024/02/05 08:22:16;;;;;;;21.85;7.13;;;;;;;11.45;78.24;99895.41;5071084;28;20057;-76
2024/02/05 08:24:43;;;;;;;31.38;7.75;;;;;;;11.43;78.50;99884.94;5068859;28;20053;-77
2024/02/05 08:27:09;;;;;;;35.42;7.78;;;;;;;11.45;78.69;99895.41;5070558;28;20052;-77
2024/02/05 08:29:36;;;;;;;28.48;7.57;;;;;;;11.43;78.67;99890.22;5070456;28;20481;-76
2024/02/05 08:32:04;;;;;;;32.90;7.47;;;;;;;11.43;78.31;99898.13;5070577;28;20056;-77
2024/02/05 08:34:30;;;;;;;27.63;6.93;;;;;;;11.43;78.35;99898.13;5070337;28;20052;-77
2024/02/05 08:36:57;;;;;;;25.13;7.30;;;;;;;11.43;78.24;99895.50;5070326;28;20048;-77
2024/02/05 08:39:23;;;;;;;26.60;8.55;;;;;;;11.42;78.39;99896.44;5070197;28;20522;-76
2024/02/05 08:41:50;;;;;;;31.85;8.27;;;;;;;11.42;78.13;99903.47;5070311;28;20041;-77
2024/02/05 08:44:16;;;;;;;30.73;8.13;;;;;;;11.41;78.06;99884.19;5070203;28;20521;-77
2024/02/05 08:46:43;;;;;;;34.97;7.65;;;;;;;11.41;78.00;99896.53;5070083;28;20075;-77
2024/02/05 08:49:12;;;;;;;36.08;9.35;;;;;;;11.39;77.72;99891.34;5069112;28;20106;-77
2024/02/05 08:51:38;;;;;;;27.95;7.93;;;;;;;11.39;77.75;99880.78;5070226;28;20091;-78
2024/02/05 08:54:05;;;;;;;24.27;6.93;;;;;;;11.40;78.25;99887.75;5069118;28;20140;-77
2024/02/05 08:56:32;;;;;;;25.35;8.25;;;;;;;11.40;78.05;99873.75;5072924;28;20045;-77
2024/02/05 08:58:58;;;;;;;32.90;7.47;;;;;;;11.40;77.99;99865.84;5074522;28;20052;-76
2024/02/05 09:01:25;;;;;;;36.67;7.30;;;;;;;11.42;78.37;99879.75;5074212;28;20080;-77
2024/02/05 09:03:52;;;;;;;35.38;8.32;;;;;;;11.43;77.44;99870.91;5074320;28;20080;-76
2024/02/05 09:06:19;;;;;;;32.53;7.63;;;;;;;11.42;77.99;99879.75;5073888;28;20052;-76
2024/02/05 09:08:45;;;;;;;34.28;7.85;;;;;;;11.42;77.93;99871.84;5074085;28;20061;-76
2024/02/05 09:11:12;;;;;;;36.90;8.95;;;;;;;11.42;77.57;99890.31;5074168;28;20048;-77
2024/02/05 09:13:41;;;;;;;22.42;7.22;;;;;;;11.41;77.23;99892.09;5073782;28;20056;-76
2024/02/05 09:16:07;;;;;;;27.55;7.60;;;;;;;11.41;77.21;99893.88;5073600;28;20088;-76
2024/02/05 09:18:34;;;;;;;28.73;8.50;;;;;;;11.39;77.07;99888.69;5073854;28;20101;-76
2024/02/05 09:21:00;;;;;;;27.85;7.60;;;;;;;11.42;77.49;99891.16;5072413;28;20056;-77
2024/02/05 09:23:27;;;;;;;29.10;7.60;;;;;;;11.43;77.80;99897.25;5073786;28;20131;-76
2024/02/05 09:25:53;;;;;;;30.60;7.57;;;;;;;11.42;77.55;99888.53;5073611;28;20084;-76
2024/02/05 09:28:20;;;;;;;26.73;7.45;;;;;;;11.43;77.48;99895.50;5073706;28;20063;-77
2024/02/05 09:30:47;;;;;;;28.00;7.40;;;;;;;11.43;77.23;99898.13;5073573;28;20057;-76
2024/02/05 09:33:31;;;;;;;23.23;6.82;;;;;;;11.44;77.47;99896.34;5073484;28;20056;-76
2024/02/05 09:35:58;;;;;;;33.30;7.40;;;;;;;11.45;77.65;99885.69;5073398;28;20135;-77
2024/02/05 09:38:24;;;;;;;29.13;7.82;;;;;;;11.45;77.88;99906.78;5073581;28;20044;-76
2024/02/05 09:41:07;;;;;;;27.48;7.22;;;;;;;11.43;76.16;99902.53;5073497;28;20087;-77
2024/02/05 09:43:34;;;;;;;27.90;7.10;;;;;;;11.47;77.91;99902.28;5073603;28;20080;-76
2024/02/05 09:46:15;;;;;;;30.70;7.60;;;;;;;11.47;77.39;99898.78;5070500;28;20135;-76
2024/02/05 09:48:43;;;;;;;32.67;8.13;;;;;;;11.45;76.71;99906.78;5073400;28;20131;-76
2024/02/05 09:51:12;;;;;;;39.08;7.30;;;;;;;11.45;76.87;99895.41;5073550;28;20131;-76
2024/02/05 09:53:39;;;;;;;22.23;6.72;;;;;;;11.47;77.37;99894.38;5073444;28;20048;-78
2024/02/05 09:56:07;;;;;;;29.08;7.47;;;;;;;11.48;77.53;99900.50;5071882;28;20067;-82
2024/02/05 09:58:34;;;;;;;40.53;7.90;;;;;;;11.51;78.15;99902.94;5073166;28;20041;-76
2024/02/05 10:01:02;;;;;;;24.70;6.80;;;;;;;11.54;77.91;99899.28;5073177;28;20481;-77
2024/02/05 10:03:30;;;;;;;28.30;7.18;;;;;;;11.56;77.88;99908.78;5073316;28;20057;-76
2024/02/05 10:06:03;;;;;;;33.80;8.15;;;;;;;11.57;76.15;99902.59;5072871;28;20131;-81
2024/02/05 10:08:31;;;;;;;29.85;7.43;;;;;;;11.62;77.23;99912.03;5072419;28;20140;-76
2024/02/05 10:10:59;;;;;;;25.00;6.78;;;;;;;11.62;76.97;99918.13;5071714;28;20053;-77
2024/02/05 10:13:29;;;;;;;25.65;7.18;;;;;;;11.62;76.60;99912.84;5073103;28;20386;-77
2024/02/05 10:15:55;;;;;;;35.08;8.10;;;;;;;11.62;76.94;99912.84;5072754;28;20049;-77
2024/02/05 10:18:22;;;;;;;30.63;7.97;;;;;;;11.63;77.33;99905.81;5072925;28;20484;-77
2024/02/05 10:20:48;;;;;;;23.70;6.38;;;;;;;11.62;77.04;99912.84;5072968;28;20568;-76
2024/02/05 10:23:15;;;;;;;26.92;6.22;;;;;;;11.64;77.58;99915.41;5072504;28;20139;-76
2024/02/05 10:25:41;;;;;;;31.98;7.75;;;;;;;11.66;77.92;99905.63;5072275;28;20070;-77
2024/02/05 10:28:08;;;;;;;33.15;7.25;;;;;;;11.67;77.14;99915.22;5072816;28;20805;-76
2024/02/05 10:30:34;;;;;;;24.73;7.53;;;;;;;11.69;77.40;99908.06;5072648;28;20061;-75
2024/02/05 10:33:03;;;;;;;26.00;6.47;;;;;;;11.71;76.74;99900.94;5072586;28;20048;-77
2024/02/05 10:35:29;;;;;;;29.13;6.72;;;;;;;11.72;76.70;99895.56;5072357;28;20140;-75
2024/02/05 10:38:09;;;;;;;24.02;6.70;;;;;;;11.70;74.60;99907.16;5072369;28;20084;-76
2024/02/05 10:40:36;;;;;;;27.48;6.95;;;;;;;11.71;76.00;99903.56;5072630;28;20135;-77
2024/02/05 10:43:04;;;;;;;22.27;6.47;;;;;;;11.71;76.63;99896.47;5072421;28;20413;-77
2024/02/05 10:45:34;;;;;;;29.98;6.57;;;;;;;11.69;76.60;99894.88;5072015;28;20102;-76
2024/02/05 10:48:01;;;;;;;28.35;7.93;;;;;;;11.68;76.38;99885.28;5071044;28;20051;-76
2024/02/05 10:50:27;;;;;;;30.60;6.75;;;;;;;11.69;76.81;99892.25;5072706;28;20053;-77
2024/02/05 10:52:54;;;;;;;27.45;6.85;;;;;;;11.71;76.84;99885.09;5071970;28;20044;-77
2024/02/05 10:55:20;;;;;;;31.10;7.40;;;;;;;11.73;76.81;99875.31;5071985;28;20111;-78
2024/02/05 10:57:49;;;;;;;28.92;7.00;;;;;;;11.72;76.05;99881.53;5070898;28;20048;-76
2024/02/05 11:00:18;;;;;;;29.65;7.65;;;;;;;11.71;75.32;99888.56;5071859;28;20391;-77
2024/02/05 11:03:08;;;;;;;19.38;6.88;;;;;;;11.72;73.44;99886.78;5072171;28;20397;-77
2024/02/05 11:05:40;;;;;;;24.80;6.07;;;;;;;11.77;75.82;99870.72;5071557;28;20482;-77
2024/02/05 11:08:21;;;;;;;34.47;8.15;;;;;;;11.72;73.24;99865.69;5071958;28;20048;-75
2024/02/05 11:10:52;;;;;;;28.50;7.03;;;;;;;11.76;75.75;99861.94;5071739;28;20484;-75
2024/02/05 11:13:22;;;;;;;28.30;7.45;;;;;;;11.76;75.53;99861.06;5071683;28;20139;-77
2024/02/05 11:15:52;;;;;;;32.08;6.88;;;;;;;11.74;75.26;99863.84;5071358;28;20052;-76
2024/02/05 11:18:30;;;;;;;30.05;8.30;;;;;;;11.69;72.87;99855.31;5071368;28;20607;-78
2024/02/05 11:20:59;;;;;;;39.58;8.02;;;;;;;11.72;74.42;99865.69;5070137;28;20080;-76
2024/02/05 11:23:27;;;;;;;36.17;9.27;;;;;;;11.68;73.30;99864.19;5071398;28;20041;-76
2024/02/05 11:25:54;;;;;;;32.58;9.60;;;;;;;11.71;75.17;99842.91;5071201;28;20076;-76
2024/02/05 11:28:23;;;;;;;36.47;10.60;;;;;;;11.70;75.41;99860.50;5071348;28;20139;-76